createdAt,value
2018-10-16T00:02:19.926Z,61.10
2018-10-16T00:04:49.130Z,61.00
2018-10-16T00:07:18.231Z,60.90
2018-10-16T00:09:47.738Z,60.90
2018-10-16T00:12:16.883Z,60.90
2018-10-16T00:14:46.006Z,61.10
2018-10-16T00:17:15.199Z,61.00
2018-10-16T00:19:44.295Z,61.20
2018-10-16T00:22:13.422Z,61.40
2018-10-16T00:24:42.567Z,61.80
2018-10-16T00:27:11.709Z,62.20
2018-10-16T00:29:40.834Z,62.20
2018-10-16T00:32:09.959Z,62.20
2018-10-16T00:34:39.097Z,62.70
2018-10-16T00:37:08.200Z,62.70
2018-10-16T00:39:37.344Z,63.00
2018-10-16T00:42:06.743Z,63.10
2018-10-16T00:44:35.879Z,63.20
2018-10-16T00:47:05.041Z,63.50
2018-10-16T00:49:34.144Z,63.60
2018-10-16T00:52:03.370Z,64.00
2018-10-16T00:54:32.488Z,64.10
2018-10-16T00:57:01.720Z,64.30
2018-10-16T00:59:30.859Z,64.60
2018-10-16T01:01:59.958Z,64.70
2018-10-16T01:04:29.074Z,64.50
2018-10-16T01:06:58.201Z,64.40
2018-10-16T01:09:27.423Z,64.40
2018-10-16T01:11:56.633Z,65.60
2018-10-16T01:14:26.284Z,65.10
2018-10-16T01:16:55.349Z,65.20
2018-10-16T01:19:24.451Z,65.30
2018-10-16T01:21:53.579Z,65.40
2018-10-16T01:24:22.710Z,65.40
2018-10-16T01:26:51.814Z,65.30
2018-10-16T01:29:20.942Z,65.50
2018-10-16T01:31:50.036Z,65.60
2018-10-16T01:34:19.146Z,65.40
2018-10-16T01:36:48.259Z,65.10
2018-10-16T01:39:17.366Z,64.80
2018-10-16T01:41:46.555Z,64.60
2018-10-16T01:44:15.854Z,64.50
2018-10-16T01:46:44.968Z,64.50
2018-10-16T01:49:14.143Z,64.60
2018-10-16T01:51:43.276Z,64.70
2018-10-16T01:54:12.415Z,64.60
2018-10-16T01:56:41.577Z,65.30
2018-10-16T01:59:10.627Z,65.60
2018-10-16T02:01:39.800Z,65.40
2018-10-16T02:04:08.972Z,65.00
2018-10-16T02:06:38.118Z,64.80
2018-10-16T02:09:09.800Z,64.80
2018-10-16T02:11:39.043Z,64.80
2018-10-16T02:14:08.566Z,65.00
2018-10-16T02:16:37.937Z,65.00
2018-10-16T02:19:07.178Z,65.20
2018-10-16T02:21:36.519Z,65.10
2018-10-16T02:24:05.838Z,65.10
2018-10-16T02:26:35.157Z,65.20
2018-10-16T02:29:04.750Z,65.10
2018-10-16T02:31:36.273Z,65.10
2018-10-16T02:34:05.721Z,65.30
2018-10-16T02:36:35.008Z,65.40
2018-10-16T02:39:05.453Z,65.50
2018-10-16T02:41:34.592Z,65.40
2018-10-16T02:44:03.748Z,65.40
2018-10-16T02:46:32.906Z,65.40
2018-10-16T02:49:02.052Z,65.50
2018-10-16T02:51:31.197Z,65.50
2018-10-16T02:54:00.336Z,65.60
2018-10-16T02:56:29.503Z,65.50
2018-10-16T02:58:58.653Z,65.50
2018-10-16T03:01:27.814Z,65.40
2018-10-16T03:03:57.369Z,65.20
2018-10-16T03:06:26.489Z,65.10
2018-10-16T03:08:55.630Z,65.10
2018-10-16T03:11:24.873Z,65.10
2018-10-16T03:13:54.042Z,64.90
2018-10-16T03:16:23.254Z,65.00
2018-10-16T03:18:52.421Z,65.00
2018-10-16T03:21:21.593Z,64.90
2018-10-16T03:23:50.785Z,64.90
2018-10-16T03:26:19.975Z,65.00
2018-10-16T03:28:49.195Z,65.00
2018-10-16T03:31:18.345Z,65.00
2018-10-16T03:33:47.858Z,64.90
2018-10-16T03:36:17.076Z,64.90
2018-10-16T03:38:46.208Z,64.90
2018-10-16T03:41:15.371Z,65.00
2018-10-16T03:43:44.489Z,65.00
2018-10-16T03:46:13.886Z,65.10
2018-10-16T03:48:43.010Z,65.10
2018-10-16T03:51:12.296Z,66.10
2018-10-16T03:53:41.476Z,65.30
2018-10-16T03:56:10.781Z,65.30
2018-10-16T03:58:40.108Z,66.20
2018-10-16T04:01:09.234Z,65.60
2018-10-16T04:03:38.418Z,65.70
2018-10-16T04:06:07.602Z,65.80
2018-10-16T04:08:36.732Z,65.90
2018-10-16T04:11:06.205Z,66.90
2018-10-16T04:13:35.341Z,66.00
2018-10-16T04:16:04.555Z,66.30
2018-10-16T04:18:33.717Z,66.60
2018-10-16T04:21:02.895Z,66.90
2018-10-16T04:23:32.064Z,66.80
2018-10-16T04:26:01.226Z,66.80
2018-10-16T04:28:30.340Z,66.90
2018-10-16T04:30:59.482Z,67.90
2018-10-16T04:33:28.587Z,67.30
2018-10-16T04:35:57.747Z,67.40
2018-10-16T04:38:26.811Z,67.50
2018-10-16T04:40:56.064Z,67.70
2018-10-16T04:43:25.184Z,68.20
2018-10-16T04:45:54.381Z,67.80
2018-10-16T04:48:23.988Z,68.00
2018-10-16T04:50:53.095Z,68.00
2018-10-16T04:53:22.221Z,68.10
2018-10-16T04:55:51.317Z,68.30
2018-10-16T04:58:20.467Z,68.60
2018-10-16T05:00:49.588Z,68.70
2018-10-16T05:03:18.717Z,68.90
2018-10-16T05:05:47.912Z,68.70
2018-10-16T05:08:17.037Z,68.70
2018-10-16T05:10:46.201Z,68.50
2018-10-16T05:13:15.365Z,68.40
2018-10-16T05:15:44.478Z,68.30
2018-10-16T05:18:13.646Z,68.30
2018-10-16T05:20:42.739Z,68.50
2018-10-16T05:23:11.862Z,68.60
2018-10-16T05:25:40.991Z,68.60
2018-10-16T05:28:10.129Z,68.20
2018-10-16T05:30:39.300Z,68.20
2018-10-16T05:33:08.477Z,67.90
2018-10-16T05:35:37.790Z,67.80
2018-10-16T05:38:07.112Z,67.60
2018-10-16T05:40:36.204Z,67.50
2018-10-16T05:43:05.839Z,67.40
2018-10-16T05:45:36.868Z,67.40
2018-10-16T05:48:06.174Z,67.40
2018-10-16T05:50:35.352Z,67.70
2018-10-16T05:53:04.493Z,67.70
2018-10-16T05:55:33.680Z,67.80
2018-10-16T05:58:02.863Z,67.20
2018-10-16T06:00:45.667Z,66.90
2018-10-16T06:03:14.783Z,66.70
2018-10-16T06:05:44.006Z,66.20
2018-10-16T06:08:13.154Z,65.70
2018-10-16T06:10:42.487Z,65.10
2018-10-16T06:13:11.808Z,64.60
2018-10-16T06:15:40.905Z,63.90
2018-10-16T06:18:10.011Z,62.90
2018-10-16T06:20:39.210Z,62.80
2018-10-16T06:23:08.371Z,62.10
2018-10-16T06:25:37.668Z,61.70
2018-10-16T06:28:31.849Z,61.30
2018-10-16T06:31:01.009Z,61.40
2018-10-16T06:33:31.660Z,61.10
2018-10-16T06:36:00.751Z,60.10
2018-10-16T06:38:29.979Z,59.30
2018-10-16T06:40:59.222Z,58.70
2018-10-16T06:43:28.208Z,58.50
2018-10-16T06:45:57.332Z,58.00
2018-10-16T06:48:26.691Z,57.90
2018-10-16T06:50:55.653Z,57.90
2018-10-16T06:53:24.959Z,58.00
2018-10-16T06:55:54.047Z,57.70
2018-10-16T06:58:23.343Z,57.80
2018-10-16T07:00:52.931Z,57.90
2018-10-16T07:03:22.603Z,58.00
2018-10-16T07:05:51.907Z,57.70
2018-10-16T07:08:21.144Z,57.10
2018-10-16T07:10:50.676Z,56.10
2018-10-16T07:13:19.893Z,56.00
2018-10-16T07:15:49.062Z,55.70
2018-10-16T07:18:18.436Z,55.20
2018-10-16T07:20:47.578Z,54.70
2018-10-16T07:23:16.935Z,53.70
2018-10-16T07:25:46.182Z,53.00
2018-10-16T07:28:15.340Z,51.50
2018-10-16T07:30:44.498Z,50.80
2018-10-16T07:33:13.624Z,50.60
2018-10-16T07:35:42.724Z,50.50
2018-10-16T07:38:11.904Z,50.40
2018-10-16T07:40:40.957Z,49.60
2018-10-16T07:43:10.176Z,49.10
2018-10-16T07:45:39.279Z,48.20
2018-10-16T07:48:08.444Z,47.00
2018-10-16T07:50:37.588Z,44.80
2018-10-16T07:53:06.883Z,43.40
2018-10-16T07:55:36.015Z,40.50
2018-10-16T07:58:05.470Z,36.60
2018-10-16T08:00:34.603Z,32.40
2018-10-16T08:03:03.725Z,30.10
2018-10-16T08:05:32.896Z,28.20
2018-10-16T08:08:02.091Z,27.40
2018-10-16T08:10:31.332Z,26.20
2018-10-16T08:13:00.444Z,25.50
2018-10-16T08:15:29.669Z,25.10
2018-10-16T08:17:58.786Z,25.20
2018-10-16T08:20:27.941Z,25.20
2018-10-16T08:22:57.070Z,25.90
2018-10-16T08:25:26.267Z,26.50
2018-10-16T08:27:55.423Z,28.80
2018-10-16T08:30:24.648Z,29.30
2018-10-16T08:32:53.683Z,30.00
2018-10-16T08:35:22.830Z,29.30
2018-10-16T08:37:54.034Z,27.80
2018-10-16T08:40:23.160Z,26.40
2018-10-16T08:43:46.175Z,25.90
2018-10-16T08:46:51.221Z,24.30
2018-10-16T08:49:56.589Z,22.70
2018-10-16T08:52:25.735Z,21.60
2018-10-16T08:54:54.927Z,20.10
2018-10-16T08:57:24.023Z,19.90
2018-10-16T08:59:53.301Z,20.20
2018-10-16T09:02:22.402Z,19.90
2018-10-16T09:04:51.516Z,19.10
2018-10-16T09:07:20.894Z,19.10
2018-10-16T09:09:50.147Z,19.30
2018-10-16T09:12:19.475Z,20.30
2018-10-16T09:14:48.787Z,20.60
2018-10-16T09:17:18.230Z,21.60
2018-10-16T09:19:47.593Z,22.20
2018-10-16T09:22:16.712Z,22.00
2018-10-16T09:24:46.018Z,23.30
2018-10-16T09:27:15.115Z,23.80
2018-10-16T09:29:44.536Z,24.30
2018-10-16T09:32:13.694Z,25.40
2018-10-16T09:34:42.869Z,25.50
2018-10-16T09:37:12.070Z,25.00
2018-10-16T09:39:41.204Z,25.20
2018-10-16T09:42:10.342Z,24.90
2018-10-16T09:44:39.876Z,24.30
2018-10-16T09:47:09.325Z,24.60
2018-10-16T09:49:39.455Z,24.00
2018-10-16T09:52:08.680Z,24.60
2018-10-16T09:54:38.127Z,24.80
2018-10-16T09:57:07.355Z,24.30
2018-10-16T09:59:36.809Z,24.00
2018-10-16T10:02:06.108Z,24.40
2018-10-16T10:04:35.343Z,22.80
2018-10-16T10:07:04.710Z,22.50
2018-10-16T10:09:34.333Z,23.40
2018-10-16T10:12:03.895Z,21.90
2018-10-16T10:14:33.148Z,21.00
2018-10-16T10:17:02.301Z,21.30
2018-10-16T10:19:31.454Z,21.90
2018-10-16T10:22:00.618Z,22.20
2018-10-16T10:24:29.787Z,22.10
2018-10-16T10:26:58.993Z,23.50
2018-10-16T10:29:28.140Z,24.90
2018-10-16T10:31:57.427Z,26.40
2018-10-16T10:34:26.620Z,27.10
2018-10-16T10:36:55.881Z,27.30
2018-10-16T10:39:25.065Z,26.80
2018-10-16T10:41:54.257Z,27.10
2018-10-16T10:44:23.390Z,27.80
2018-10-16T10:46:52.533Z,27.70
2018-10-16T10:49:21.698Z,26.80
2018-10-16T10:51:50.811Z,27.40
2018-10-16T10:54:19.917Z,26.90
2018-10-16T10:56:49.288Z,27.00
2018-10-16T10:59:18.299Z,26.60
2018-10-16T11:01:47.422Z,25.20
2018-10-16T11:04:16.587Z,25.90
2018-10-16T11:06:45.737Z,25.80
2018-10-16T11:09:14.980Z,26.40
2018-10-16T11:11:57.202Z,26.80
2018-10-16T11:14:27.394Z,28.00
2018-10-16T11:16:56.615Z,28.50
2018-10-16T11:19:26.161Z,27.60
2018-10-16T11:21:55.317Z,27.00
2018-10-16T11:24:24.437Z,25.50
2018-10-16T11:26:53.586Z,24.70
2018-10-16T11:29:22.781Z,24.00
2018-10-16T11:31:52.293Z,24.00
2018-10-16T11:34:22.018Z,23.90
2018-10-16T11:36:51.176Z,23.20
2018-10-16T11:39:20.409Z,23.90
2018-10-16T11:41:49.857Z,23.30
2018-10-16T11:44:18.988Z,24.30
2018-10-16T11:46:48.103Z,24.00
2018-10-16T11:49:17.285Z,25.20
2018-10-16T11:51:46.695Z,24.90
2018-10-16T11:54:15.850Z,24.00
2018-10-16T11:56:45.103Z,23.80
2018-10-16T11:59:14.288Z,24.50
2018-10-16T12:01:43.595Z,25.00
2018-10-16T12:04:13.063Z,23.90
2018-10-16T12:06:42.307Z,23.00
2018-10-16T12:09:11.429Z,24.20
2018-10-16T12:11:41.335Z,23.20
2018-10-16T12:14:10.585Z,24.00
2018-10-16T12:16:57.457Z,24.10
2018-10-16T12:19:30.466Z,24.00
2018-10-16T12:21:59.724Z,24.20
2018-10-16T12:24:28.841Z,24.50
2018-10-16T12:26:58.112Z,24.90
2018-10-16T12:29:27.887Z,25.20
2018-10-16T12:31:57.079Z,24.70
2018-10-16T12:34:26.503Z,25.50
2018-10-16T12:36:55.879Z,25.40
2018-10-16T12:39:25.243Z,24.80
2018-10-16T12:41:56.663Z,24.60
2018-10-16T12:44:26.155Z,25.20
2018-10-16T12:46:55.421Z,26.40
2018-10-16T12:49:24.926Z,26.40
2018-10-16T12:51:54.077Z,26.60
2018-10-16T12:54:23.294Z,27.70
2018-10-16T12:56:52.465Z,28.90
2018-10-16T12:59:21.500Z,29.70
2018-10-16T13:01:50.845Z,31.50
2018-10-16T13:04:20.068Z,32.90
2018-10-16T13:06:49.268Z,34.20
2018-10-16T13:09:18.489Z,35.80
2018-10-16T13:11:47.767Z,36.60
2018-10-16T13:14:17.092Z,37.50
2018-10-16T13:16:46.180Z,38.10
2018-10-16T13:19:15.262Z,38.20
2018-10-16T13:21:44.387Z,39.20
2018-10-16T13:24:13.620Z,39.70
2018-10-16T13:26:42.890Z,40.00
2018-10-16T13:29:12.190Z,40.20
2018-10-16T13:31:41.537Z,40.70
2018-10-16T13:34:10.785Z,41.30
2018-10-16T13:36:39.869Z,41.50
2018-10-16T13:39:09.529Z,41.80
2018-10-16T13:41:38.663Z,42.00
2018-10-16T13:44:07.899Z,42.20
2018-10-16T13:46:36.919Z,42.20
2018-10-16T13:49:06.262Z,42.60
2018-10-16T13:51:35.424Z,42.80
2018-10-16T13:54:04.605Z,41.90
2018-10-16T13:56:33.748Z,42.80
2018-10-16T13:59:02.953Z,42.30
2018-10-16T14:01:32.072Z,42.50
2018-10-16T14:04:01.333Z,42.50
2018-10-16T14:06:30.359Z,42.80
2018-10-16T14:08:59.536Z,43.30
2018-10-16T14:11:28.635Z,42.90
2018-10-16T14:13:57.779Z,42.70
2018-10-16T14:16:26.904Z,43.00
2018-10-16T14:18:56.060Z,43.60
2018-10-16T14:21:25.413Z,43.60
2018-10-16T14:23:54.596Z,43.40
2018-10-16T14:26:23.804Z,43.70
2018-10-16T14:28:53.390Z,43.40
2018-10-16T14:31:22.584Z,43.70
2018-10-16T14:33:51.758Z,44.10
2018-10-16T14:36:20.852Z,44.30
2018-10-16T14:38:50.020Z,44.10
2018-10-16T14:41:19.169Z,43.80
2018-10-16T14:43:48.277Z,44.00
2018-10-16T14:46:17.468Z,43.90
2018-10-16T14:48:46.581Z,44.10
2018-10-16T14:51:15.713Z,44.10
2018-10-16T14:53:44.933Z,44.90
2018-10-16T14:56:14.126Z,44.10
2018-10-16T14:58:43.252Z,44.10
2018-10-16T15:01:12.364Z,44.40
2018-10-16T15:03:41.571Z,44.70
2018-10-16T15:06:10.704Z,44.80
2018-10-16T15:08:39.826Z,45.10
2018-10-16T15:11:08.980Z,45.20
2018-10-16T15:13:38.159Z,45.20
2018-10-16T15:16:07.441Z,45.20
2018-10-16T15:18:36.729Z,44.90
2018-10-16T15:21:06.613Z,45.20
2018-10-16T15:23:35.839Z,45.00
2018-10-16T15:26:05.255Z,45.10
2018-10-16T15:28:34.335Z,45.10
2018-10-16T15:31:03.451Z,45.30
2018-10-16T15:33:32.561Z,45.60
2018-10-16T15:36:01.731Z,45.60
2018-10-16T15:38:30.939Z,45.90
2018-10-16T15:41:00.109Z,45.70
2018-10-16T15:43:29.269Z,46.40
2018-10-16T15:45:58.428Z,46.40
2018-10-16T15:48:27.675Z,46.70
2018-10-16T15:50:56.795Z,47.20
2018-10-16T15:53:25.954Z,47.00
2018-10-16T15:55:55.168Z,46.80
2018-10-16T15:58:24.247Z,47.50
2018-10-16T16:00:53.402Z,47.90
2018-10-16T16:03:22.621Z,48.00
2018-10-16T16:05:51.766Z,48.00
2018-10-16T16:08:20.942Z,48.50
2018-10-16T16:10:50.104Z,48.40
2018-10-16T16:13:19.215Z,48.00
2018-10-16T16:15:48.388Z,47.90
2018-10-16T16:18:17.542Z,48.00
2018-10-16T16:20:46.781Z,48.50
2018-10-16T16:23:15.926Z,48.20
2018-10-16T16:25:45.163Z,48.70
2018-10-16T16:28:14.352Z,48.60
2018-10-16T16:30:43.484Z,48.50
2018-10-16T16:33:12.727Z,49.30
2018-10-16T16:35:41.874Z,48.90
2018-10-16T16:38:11.180Z,49.20
2018-10-16T16:40:40.218Z,49.40
2018-10-16T16:43:09.465Z,49.70
2018-10-16T16:45:38.693Z,50.20
2018-10-16T16:48:07.998Z,50.10
2018-10-16T16:50:37.218Z,50.60
2018-10-16T16:53:06.484Z,51.40
2018-10-16T16:55:35.634Z,51.30
2018-10-16T16:58:04.945Z,51.30
2018-10-16T17:00:34.118Z,51.80
2018-10-16T17:03:03.280Z,52.10
2018-10-16T17:05:32.478Z,52.50
2018-10-16T17:08:01.788Z,52.70
2018-10-16T17:10:30.888Z,52.70
2018-10-16T17:13:00.073Z,52.80
2018-10-16T17:15:29.327Z,53.00
2018-10-16T17:17:58.454Z,53.10
2018-10-16T17:20:27.590Z,53.40
2018-10-16T17:22:56.781Z,53.50
2018-10-16T17:25:26.170Z,54.00
2018-10-16T17:27:55.145Z,54.20
2018-10-16T17:30:24.357Z,54.30
2018-10-16T17:32:53.628Z,54.40
2018-10-16T17:35:22.839Z,54.70
2018-10-16T17:37:52.112Z,55.10
2018-10-16T17:40:21.314Z,55.50
2018-10-16T17:42:50.498Z,55.50
2018-10-16T17:45:19.631Z,55.70
2018-10-16T17:47:48.821Z,55.60
2018-10-16T17:50:19.256Z,55.80
2018-10-16T17:52:48.510Z,56.00
2018-10-16T17:55:17.841Z,56.10
2018-10-16T17:57:47.063Z,56.50
2018-10-16T18:00:20.115Z,56.60
2018-10-16T18:02:49.244Z,57.40
2018-10-16T18:05:18.569Z,57.30
2018-10-16T18:07:47.683Z,57.30
2018-10-16T18:10:16.848Z,57.50
2018-10-16T18:12:46.187Z,58.10
2018-10-16T18:15:15.839Z,57.50
2018-10-16T18:17:45.224Z,58.20
2018-10-16T18:20:16.398Z,57.60
2018-10-16T18:22:46.262Z,57.80
2018-10-16T18:25:15.501Z,57.80
2018-10-16T18:27:45.400Z,57.90
2018-10-16T18:30:14.750Z,58.00
2018-10-16T18:32:43.965Z,58.30
2018-10-16T18:35:13.406Z,58.40
2018-10-16T18:37:43.703Z,58.30
2018-10-16T18:40:13.483Z,58.40
2018-10-16T18:42:43.009Z,58.80
2018-10-16T18:45:13.537Z,58.60
2018-10-16T18:47:42.677Z,59.00
2018-10-16T18:50:13.370Z,59.40
2018-10-16T18:52:42.938Z,59.70
2018-10-16T18:55:13.468Z,59.80
2018-10-16T18:57:42.606Z,60.00
2018-10-16T19:00:14.127Z,60.30
2018-10-16T19:02:43.364Z,61.10
2018-10-16T19:05:12.524Z,61.20
2018-10-16T19:07:42.053Z,61.30
2018-10-16T19:10:11.226Z,61.70
2018-10-16T19:12:41.403Z,62.00
2018-10-16T19:15:12.348Z,62.10
2018-10-16T19:17:41.903Z,62.60
2018-10-16T19:20:12.456Z,62.50
2018-10-16T19:22:42.330Z,62.90
2018-10-16T19:25:12.393Z,62.70
2018-10-16T19:27:41.617Z,62.60
2018-10-16T19:30:11.880Z,62.80
2018-10-16T19:32:41.179Z,62.80
2018-10-16T19:35:11.732Z,62.90
2018-10-16T19:37:40.985Z,63.20
2018-10-16T19:40:10.147Z,63.00
2018-10-16T19:42:39.304Z,63.50
2018-10-16T19:45:09.160Z,63.50
2018-10-16T19:47:38.645Z,63.70
2018-10-16T19:50:08.560Z,63.80
2018-10-16T19:52:38.173Z,64.20
2018-10-16T19:55:07.667Z,64.50
2018-10-16T19:57:37.125Z,65.10
2018-10-16T20:00:07.814Z,65.20
2018-10-16T20:02:37.174Z,65.10
2018-10-16T20:05:06.891Z,65.00
2018-10-16T20:07:36.303Z,65.20
2018-10-16T20:10:05.920Z,65.40
2018-10-16T20:12:35.170Z,65.70
2018-10-16T20:15:04.931Z,65.80
2018-10-16T20:17:34.200Z,66.10
2018-10-16T20:20:03.383Z,66.50
2018-10-16T20:22:33.035Z,66.30
2018-10-16T20:25:02.460Z,66.30
2018-10-16T20:27:31.888Z,66.30
2018-10-16T20:30:01.344Z,66.30
2018-10-16T20:32:30.852Z,66.60
2018-10-16T20:35:00.376Z,66.70
2018-10-16T20:37:29.884Z,66.90
2018-10-16T20:39:59.257Z,67.20
2018-10-16T20:42:28.464Z,67.70
2018-10-16T20:44:58.034Z,68.20
2018-10-16T20:47:27.437Z,68.50
2018-10-16T20:49:56.859Z,68.40
2018-10-16T20:52:26.071Z,68.50
2018-10-16T20:54:55.378Z,68.50
2018-10-16T20:57:24.626Z,68.20
2018-10-16T20:59:54.530Z,68.10
2018-10-16T21:02:23.801Z,67.90
2018-10-16T21:04:53.293Z,68.80
2018-10-16T21:07:22.499Z,68.10
2018-10-16T21:09:51.797Z,68.00
2018-10-16T21:12:21.200Z,68.50
2018-10-16T21:14:50.471Z,68.90
2018-10-16T21:17:19.718Z,68.90
2018-10-16T21:19:49.058Z,68.40
2018-10-16T21:22:18.633Z,68.30
2018-10-16T21:24:47.757Z,68.50
2018-10-16T21:27:16.916Z,69.10
2018-10-16T21:29:46.137Z,69.90
2018-10-16T21:32:15.455Z,70.60
2018-10-16T21:34:44.936Z,70.10
2018-10-16T21:37:14.145Z,70.20
2018-10-16T21:39:43.528Z,70.20
2018-10-16T21:42:12.699Z,70.50
2018-10-16T21:44:41.983Z,71.40
2018-10-16T21:47:11.578Z,71.70
2018-10-16T21:49:41.224Z,71.60
2018-10-16T21:52:10.383Z,71.60
2018-10-16T21:54:39.712Z,71.70
2018-10-16T21:57:09.156Z,71.80
2018-10-16T21:59:38.443Z,72.00
2018-10-16T22:02:25.662Z,72.00
2018-10-16T22:04:55.041Z,72.20
2018-10-16T22:07:24.331Z,72.00
2018-10-16T22:09:53.751Z,71.90
2018-10-16T22:12:23.040Z,72.20
2018-10-16T22:14:52.355Z,72.30
2018-10-16T22:17:22.271Z,72.60
2018-10-16T22:19:53.435Z,72.60
2018-10-16T22:22:22.681Z,73.00
2018-10-16T22:24:51.830Z,73.10
2018-10-16T22:27:21.076Z,73.30
2018-10-16T22:29:50.413Z,73.30
2018-10-16T22:32:19.602Z,73.50
2018-10-16T22:34:48.815Z,73.60
2018-10-16T22:37:18.183Z,73.60
2018-10-16T22:39:47.493Z,73.70
2018-10-16T22:42:17.022Z,74.00
2018-10-16T22:44:46.443Z,74.00
2018-10-16T22:47:15.702Z,74.20
2018-10-16T22:49:45.098Z,74.20
2018-10-16T22:52:14.452Z,74.50
2018-10-16T22:54:44.056Z,74.60
2018-10-16T22:57:13.369Z,74.90
2018-10-16T22:59:43.379Z,75.10
2018-10-16T23:02:12.763Z,75.30
2018-10-16T23:04:42.240Z,75.30
2018-10-16T23:07:11.582Z,75.20
2018-10-16T23:09:44.724Z,75.30
2018-10-16T23:12:13.926Z,75.30
2018-10-16T23:14:43.456Z,75.30
2018-10-16T23:17:12.915Z,75.40
2018-10-16T23:19:42.261Z,75.50
2018-10-16T23:22:11.545Z,75.50
2018-10-16T23:24:40.793Z,75.60
2018-10-16T23:27:10.158Z,75.60
2018-10-16T23:29:39.965Z,75.70
2018-10-16T23:32:09.259Z,75.70
2018-10-16T23:34:38.633Z,75.70
2018-10-16T23:37:08.099Z,75.70
2018-10-16T23:39:37.515Z,75.70
2018-10-16T23:42:06.766Z,75.50
2018-10-16T23:44:35.988Z,75.60
2018-10-16T23:47:05.559Z,75.70
2018-10-16T23:49:34.760Z,75.60
2018-10-16T23:52:04.124Z,75.60
2018-10-16T23:54:33.400Z,75.80
2018-10-16T23:57:02.624Z,75.90
2018-10-16T23:59:32.116Z,76.10
